Time;durP1;ratioP1;P1;durP2;ratioP2;P2;SDS_P1;SDS_P2;PMS_P1;PMS_P2;Temp;Humidity;BMP_temperature;BMP_pressure;BME280_temperature;BME280_humidity;BME280_pressure;Samples;Min_cycle;Max_cycle;Signal;HPM_P1;HPM_P2
2022/10/06 00:00:43;;;;;;;1.50;1.40;;;19.20;56.10;;;18.05;55.17;101360.72;12250832;19;20025;-88
2022/10/06 00:04:46;;;;;;;1.70;1.60;;;19.20;56.10;;;17.94;55.49;101342.19;12262018;19;20461;-88
2022/10/06 00:08:47;;;;;;;1.52;1.42;;;19.20;56.10;;;18.06;55.12;101362.38;12256269;19;20359;-88
2022/10/06 00:12:51;;;;;;;1.67;1.52;;;19.20;56.10;;;17.89;55.17;101336.41;12258652;19;20010;-87
2022/10/06 00:16:52;;;;;;;2.05;1.67;;;19.30;56.20;;;18.25;55.27;101408.56;12257359;19;20036;-87
2022/10/06 00:20:59;;;;;;;1.83;1.73;;;19.20;56.20;;;18.31;55.40;101419.53;12252066;19;20421;-87
2022/10/06 00:25:03;;;;;;;1.52;1.42;;;19.30;56.20;;;18.30;55.45;101422.28;12256271;19;20015;-88
2022/10/06 00:29:05;;;;;;;1.50;1.30;;;19.20;56.30;;;18.02;55.50;101381.25;12261635;19;20026;-88
2022/10/06 00:33:06;;;;;;;2.35;1.52;;;19.30;56.30;;;18.03;55.60;101389.06;12267423;19;20447;-87
2022/10/06 00:37:08;;;;;;;2.13;1.33;;;19.20;56.30;;;18.01;55.52;101396.28;12278773;19;20376;-87
2022/10/06 00:41:14;;;;;;;1.73;1.20;;;19.10;56.30;;;18.27;55.41;101447.16;12270832;19;20010;-88
2022/10/06 00:45:16;;;;;;;1.70;1.25;;;19.10;56.30;;;18.04;55.37;101409.25;12274761;19;20015;-89
2022/10/06 00:49:29;;;;;;;1.50;1.38;;;19.10;56.40;;;18.28;55.59;101463.84;12270705;19;20015;-88
2022/10/06 00:53:32;;;;;;;2.53;1.50;;;19.10;56.40;;;18.21;55.51;101441.50;12270450;19;20007;-87
2022/10/06 00:57:39;;;;;;;1.63;1.52;;;19.20;56.60;;;17.98;55.76;101422.91;12268553;19;20034;-87
2022/10/06 01:02:12;;;;;;;1.80;1.70;;;19.10;56.60;;;17.99;55.51;101424.63;12268580;19;20043;-87
2022/10/06 01:06:14;;;;;;;2.63;1.55;;;19.10;56.50;;;18.19;55.72;101453.97;12268379;19;20568;-87
2022/10/06 01:10:15;;;;;;;2.53;1.50;;;19.00;56.70;;;17.92;55.89;101416.28;12264843;19;20043;-87
2022/10/06 01:14:19;;;;;;;1.50;1.40;;;19.10;56.80;;;18.14;55.69;101444.59;12269458;19;20014;-87
2022/10/06 01:18:23;;;;;;;1.50;1.40;;;19.20;56.90;;;18.32;55.84;101474.09;12261663;19;20519;-88
2022/10/06 01:22:32;;;;;;;1.70;1.60;;;19.20;57.00;;;18.26;55.95;101457.84;12261170;19;20042;-87
2022/10/06 01:26:41;;;;;;;1.67;1.58;;;19.10;57.00;;;18.31;55.76;101461.00;12260994;19;20010;-88
2022/10/06 01:30:51;;;;;;;1.83;1.73;;;19.20;57.00;;;18.10;55.92;101424.63;12255595;19;20030;-87
2022/10/06 01:34:54;;;;;;;1.58;1.15;;;19.20;57.00;;;18.20;55.95;101429.22;12260419;19;20017;-87
2022/10/06 01:38:56;;;;;;;1.77;1.30;;;19.40;57.20;;;18.16;55.86;101423.34;12257373;19;20353;-88
2022/10/06 01:42:58;;;;;;;3.95;1.52;;;19.30;57.10;;;18.16;56.18;101430.44;12259019;19;20038;-87
2022/10/06 01:47:05;;;;;;;1.60;1.50;;;19.30;57.00;;;18.62;56.08;101496.50;12255912;19;20007;-87
2022/10/06 01:51:11;;;;;;;1.73;1.63;;;19.40;57.00;;;18.35;55.95;101457.16;12255251;19;20011;-88
2022/10/06 01:55:13;;;;;;;1.60;1.50;;;19.40;57.00;;;18.29;56.20;101433.81;12258284;19;20090;-87
2022/10/06 01:59:16;;;;;;;3.78;1.75;;;19.40;57.00;;;18.25;56.15;101419.13;12255982;19;20010;-87
2022/10/06 02:03:18;;;;;;;1.83;1.73;;;19.60;57.10;;;18.56;56.20;101454.66;12258211;19;20082;-88
2022/10/06 02:07:20;;;;;;;1.70;1.40;;;19.70;56.90;;;18.68;55.98;101474.03;12258738;19;20691;-87
2022/10/06 02:11:22;;;;;;;1.50;1.40;;;19.70;56.90;;;18.48;56.32;101446.47;12254413;19;20007;-87
2022/10/06 02:15:26;;;;;;;1.48;1.38;;;19.70;56.90;;;18.76;56.33;101483.06;12258639;19;20074;-87
2022/10/06 02:19:27;;;;;;;1.50;1.40;;;19.60;56.80;;;18.48;56.01;101447.31;12252596;19;20030;-87
2022/10/06 02:23:30;;;;;;;1.60;1.50;;;19.60;56.80;;;18.44;56.38;101453.78;12258285;19;20043;-88
2022/10/06 02:27:32;;;;;;;2.60;1.60;;;19.60;56.70;;;18.61;56.31;101470.19;12254925;19;20014;-87
2022/10/06 02:31:34;;;;;;;1.90;1.80;;;19.70;56.80;;;18.76;56.06;101490.19;12256337;19;20018;-88
2022/10/06 02:35:36;;;;;;;5.18;1.40;;;19.70;56.80;;;18.50;56.32;101450.69;12265672;19;20014;-87
2022/10/06 02:39:38;;;;;;;1.65;1.40;;;19.70;56.80;;;18.77;56.11;101515.69;12262318;19;20349;-88
2022/10/06 02:43:40;;;;;;;1.75;1.58;;;19.50;56.70;;;18.34;56.05;101450.19;12264849;19;20048;-87
2022/10/06 02:47:42;;;;;;;1.25;1.20;;;19.60;56.70;;;18.76;56.38;101530.72;12264168;19;20007;-88
2022/10/06 02:51:44;;;;;;;4.95;2.08;;;19.60;56.70;;;18.46;56.25;101472.19;12262399;19;20461;-89
2022/10/06 02:55:45;;;;;;;1.73;1.63;;;19.70;56.80;;;18.46;56.19;101486.25;12260038;19;20421;-88
2022/10/06 02:59:47;;;;;;;1.60;1.50;;;19.50;56.80;;;18.33;56.11;101465.22;12259330;19;20480;-88
2022/10/06 03:03:49;;;;;;;1.48;1.33;;;19.50;56.80;;;18.57;56.47;101511.88;12261992;19;20026;-88
2022/10/06 03:07:52;;;;;;;1.52;1.42;;;19.50;56.80;;;18.40;56.24;101486.72;12260506;19;20021;-88
2022/10/06 03:11:54;;;;;;;2.75;1.63;;;19.60;56.90;;;18.30;56.32;101483.09;12259038;19;20015;-87
2022/10/06 03:16:15;;;;;;;2.58;1.77;;;19.70;57.00;;;18.62;56.48;101544.13;12258870;19;20018;-88
2022/10/06 03:20:17;;;;;;;1.40;1.30;;;19.60;56.90;;;18.63;56.24;101539.66;12254863;19;20070;-88
2022/10/06 03:24:19;;;;;;;1.50;1.30;;;19.50;56.90;;;18.47;56.31;101518.81;12257300;19;20018;-88
2022/10/06 03:28:25;;;;;;;3.50;1.45;;;19.50;56.90;;;18.61;56.40;101553.03;12254539;19;20112;-87
2022/10/06 03:32:27;;;;;;;1.83;1.70;;;19.50;57.00;;;18.27;56.32;101509.75;12256393;19;20008;-87
2022/10/06 03:36:32;;;;;;;2.35;1.50;;;19.40;57.10;;;18.31;56.67;101525.28;12256665;19;20022;-88
2022/10/06 03:40:35;;;;;;;2.28;1.65;;;19.40;57.10;;;18.63;56.50;101589.94;12252820;19;20014;-87
2022/10/06 03:44:37;;;;;;;1.60;1.50;;;19.40;57.10;;;18.36;56.69;101532.88;12253475;19;20018;-88
2022/10/06 03:48:40;;;;;;;1.15;1.10;;;19.50;57.20;;;18.58;56.34;101585.84;12250880;19;20010;-89
2022/10/06 03:52:42;;;;;;;3.00;1.60;;;19.50;57.20;;;18.43;56.35;101565.84;12251307;19;20043;-88
2022/10/06 03:56:45;;;;;;;1.65;1.55;;;19.60;57.40;;;18.32;56.47;101569.28;12250794;19;20025;-88
2022/10/06 04:00:47;;;;;;;2.47;1.60;;;19.50;57.40;;;18.44;56.62;101603.69;12249614;19;20103;-88
2022/10/06 04:04:49;;;;;;;1.50;1.35;;;19.70;57.40;;;18.43;56.45;101610.78;12255936;19;20014;-88
2022/10/06 04:08:53;;;;;;;1.60;1.50;;;19.60;57.40;;;18.35;56.62;101606.06;12254781;19;20500;-87
2022/10/06 04:12:55;;;;;;;1.63;1.52;;;19.60;57.60;;;18.55;56.95;101654.88;12264240;19;20014;-86
2022/10/06 04:16:56;;;;;;;1.58;1.40;;;19.50;58.00;;;18.67;56.66;101682.22;12265202;19;20101;-86
2022/10/06 04:21:04;;;;;;;1.88;1.50;;;19.40;58.10;;;18.63;57.13;101680.72;12258069;19;20109;-86
2022/10/06 04:25:07;;;;;;;1.40;1.23;;;19.50;58.20;;;18.40;57.14;101656.00;12262275;19;20018;-86
2022/10/06 04:29:09;;;;;;;1.40;1.30;;;19.40;58.30;;;18.68;56.96;101706.84;12261088;19;20027;-86
2022/10/06 04:33:12;;;;;;;1.50;1.40;;;19.50;58.20;;;18.65;57.12;101699.16;12262455;19;20018;-86
2022/10/06 04:37:14;;;;;;;1.25;1.15;;;19.50;58.20;;;18.66;56.92;101719.34;12264680;19;20015;-87
2022/10/06 04:41:19;;;;;;;1.17;1.10;;;19.50;58.20;;;18.57;57.22;101708.50;12259909;19;20018;-86
2022/10/06 04:45:22;;;;;;;0.90;0.90;;;19.60;57.40;;;18.57;57.10;101719.06;12276266;19;20026;-87
2022/10/06 04:49:23;;;;;;;0.73;0.73;;;19.70;57.50;;;18.70;56.79;101742.00;12271810;19;20046;-87
2022/10/06 04:53:29;;;;;;;0.60;0.60;;;19.70;56.50;;;18.34;56.76;101694.31;12272669;19;20391;-87
2022/10/06 04:57:31;;;;;;;0.52;0.52;;;19.50;55.70;;;18.56;56.59;101732.44;12273356;19;20411;-87
2022/10/06 05:01:36;;;;;;;0.90;0.90;;;19.50;55.30;;;18.63;56.72;101738.94;12267765;19;20010;-86
2022/10/06 05:05:42;;;;;;;3.38;0.80;;;19.50;55.10;;;18.41;56.54;101720.31;12267267;19;20010;-86
2022/10/06 05:09:44;;;;;;;0.52;0.52;;;19.50;54.80;;;18.67;56.58;101761.59;12264853;19;20006;-86
2022/10/06 05:13:47;;;;;;;0.60;0.60;;;19.50;54.70;;;18.71;56.40;101765.72;12266938;19;20011;-87
2022/10/06 05:17:50;;;;;;;1.25;0.77;;;19.50;54.40;;;18.47;56.14;101741.00;12263576;19;20023;-87
2022/10/06 05:21:52;;;;;;;0.65;0.65;;;19.50;54.30;;;18.47;56.24;101755.09;12269311;19;20101;-88
2022/10/06 05:26:00;;;;;;;0.43;0.43;;;19.50;54.30;;;18.46;55.97;101779.84;12267868;19;20018;-87
2022/10/06 05:30:02;;;;;;;0.50;0.50;;;19.50;54.20;;;18.65;55.98;101810.28;12262100;19;20007;-87
2022/10/06 05:34:05;;;;;;;2.17;0.50;;;19.50;54.20;;;18.70;56.14;101819.56;12276031;19;20010;-88
2022/10/06 05:38:10;;;;;;;1.05;0.60;;;19.50;54.20;;;18.69;55.86;101825.00;12260609;19;20029;-88
2022/10/06 05:42:12;;;;;;;0.60;0.60;;;19.50;54.20;;;18.71;55.88;101853.03;12260807;19;20025;-86
2022/10/06 05:46:22;;;;;;;0.43;0.43;;;19.70;54.40;;;18.68;55.97;101841.81;12259509;19;20015;-87
2022/10/06 05:50:25;;;;;;;0.70;0.60;;;19.50;54.20;;;18.48;55.86;101828.22;12254515;19;20017;-87
2022/10/06 05:54:27;;;;;;;0.43;0.43;;;19.50;54.20;;;18.63;55.56;101867.75;12260541;19;20047;-87
2022/10/06 05:58:31;;;;;;;0.47;0.47;;;19.50;54.30;;;18.41;55.81;101845.44;12258386;19;20341;-86
2022/10/06 06:02:33;;;;;;;0.50;0.50;;;19.60;54.20;;;18.61;55.64;101882.91;12260711;19;20021;-87
2022/10/06 06:06:49;;;;;;;0.73;0.50;;;19.50;54.00;;;18.33;55.89;101858.38;12258656;19;20390;-85
2022/10/06 06:11:03;;;;;;;0.85;0.50;;;19.50;54.00;;;18.56;55.54;101910.53;12253375;19;20091;-86
2022/10/06 06:19:32;;;;;;;0.43;0.43;;;19.50;53.90;;;18.11;55.26;101883.66;12257453;19;20010;-87
2022/10/06 06:23:40;;;;;;;0.60;0.40;;;19.40;53.90;;;18.42;55.34;101960.06;12259766;19;20088;-87
2022/10/06 06:27:42;;;;;;;0.35;0.35;;;19.40;53.90;;;18.47;55.53;101972.00;12258601;19;20017;-88
2022/10/06 06:31:45;;;;;;;0.50;0.50;;;19.40;53.80;;;18.39;55.26;101982.28;12253309;19;20039;-87
2022/10/06 06:35:47;;;;;;;1.83;0.40;;;19.30;53.70;;;18.20;55.21;101955.34;12256649;19;20006;-87
2022/10/06 06:39:49;;;;;;;1.75;0.40;;;19.30;53.70;;;18.38;55.20;101999.06;12253231;19;20014;-87
2022/10/06 06:43:52;;;;;;;0.57;0.57;;;19.20;53.80;;;18.38;55.27;102017.59;12254248;19;20015;-86
2022/10/06 06:48:04;;;;;;;0.30;0.30;;;19.40;53.70;;;18.31;55.38;102032.19;12264051;19;20038;-84
2022/10/06 06:52:08;;;;;;;0.75;0.40;;;19.20;53.70;;;18.10;55.30;102010.66;12267244;19;20018;-87
2022/10/06 06:56:13;;;;;;;1.02;0.40;;;19.30;53.80;;;18.13;55.25;102040.38;12259854;19;20018;-88
2022/10/06 07:00:16;;;;;;;0.40;0.40;;;19.20;53.90;;;18.12;55.26;102043.16;12257405;19;20049;-87
2022/10/06 07:04:51;;;;;;;0.85;0.47;;;19.10;53.60;;;17.91;55.25;102013.69;12259660;19;20035;-91
2022/10/06 07:08:57;;;;;;;0.40;0.40;;;19.20;53.70;;;18.24;55.07;102074.06;12256079;19;20014;-88
2022/10/06 07:13:00;;;;;;;2.15;0.60;;;19.30;53.80;;;18.21;54.99;102078.69;12260406;19;20010;-89
2022/10/06 07:25:45;;;;;;;0.82;0.68;;;19.10;53.80;;;17.76;55.14;102033.97;12255816;19;20006;-88
2022/10/06 07:29:50;;;;;;;0.50;0.50;;;19.20;53.70;;;18.25;54.96;102117.19;12253368;19;20094;-89
2022/10/06 07:33:52;;;;;;;0.38;0.30;;;19.20;53.70;;;17.99;55.07;102084.56;12254837;19;20018;-88
2022/10/06 07:37:54;;;;;;;0.43;0.43;;;19.20;53.90;;;17.97;55.21;102089.09;12258865;19;20010;-89
2022/10/06 07:41:58;;;;;;;1.02;0.40;;;19.20;53.80;;;18.32;55.13;102144.97;12248269;19;20018;-84
2022/10/06 07:46:00;;;;;;;0.50;0.50;;;19.20;54.00;;;18.13;54.87;102118.84;12248256;19;20500;-85
2022/10/06 07:50:14;;;;;;;1.08;0.40;;;19.20;53.80;;;18.17;54.94;102124.78;12245489;19;20047;-85
2022/10/06 07:54:16;;;;;;;0.70;0.55;;;19.50;54.10;;;18.41;55.09;102169.94;12248782;19;20025;-85
2022/10/06 07:58:39;;;;;;;0.98;0.47;;;19.20;54.00;;;18.41;55.16;102157.56;12247870;19;20019;-85
2022/10/06 08:02:41;;;;;;;0.70;0.50;;;19.30;54.00;;;18.56;55.31;102174.25;12250960;19;20021;-85
2022/10/06 08:06:43;;;;;;;0.85;0.60;;;19.30;54.20;;;18.69;55.29;102196.31;12250339;19;20007;-85
2022/10/06 08:10:53;;;;;;;0.68;0.60;;;19.40;54.10;;;18.69;55.20;102190.16;12247577;19;20023;-84
2022/10/06 08:14:54;;;;;;;0.40;0.40;;;19.60;54.00;;;18.70;55.10;102175.97;12251214;19;20038;-85
2022/10/06 08:18:58;;;;;;;1.17;0.50;;;19.60;53.60;;;18.80;55.04;102211.50;12246103;19;20034;-86
2022/10/06 08:22:59;;;;;;;1.58;0.45;;;19.70;53.30;;;18.74;54.87;102195.97;12248437;19;20108;-87
2022/10/06 08:27:01;;;;;;;1.48;0.77;;;19.70;53.10;;;18.97;54.84;102232.41;12252513;19;20010;-85
2022/10/06 08:31:05;;;;;;;1.35;0.55;;;19.80;53.10;;;18.98;54.82;102222.66;12247342;19;20015;-85
2022/10/06 08:35:09;;;;;;;1.93;1.27;;;19.90;52.90;;;18.95;54.65;102226.34;12255893;19;20006;-86
2022/10/06 08:39:10;;;;;;;1.33;0.60;;;19.90;52.60;;;19.02;54.70;102250.63;12250220;19;20011;-87
2022/10/06 08:43:18;;;;;;;1.73;0.47;;;20.00;52.60;;;19.05;54.56;102262.81;12250360;19;20032;-86
2022/10/06 08:47:22;;;;;;;2.53;1.00;;;20.00;52.30;;;19.12;54.62;102258.78;12246889;19;20490;-86
2022/10/06 08:51:49;;;;;;;1.02;0.65;;;20.00;52.20;;;19.17;54.61;102262.00;12246614;19;20010;-87
2022/10/06 08:56:25;;;;;;;0.85;0.60;;;20.10;52.00;;;19.09;54.35;102256.34;12263310;19;20035;-85
2022/10/06 09:00:31;;;;;;;2.47;1.05;;;20.10;52.20;;;19.23;54.36;102278.34;12259649;19;20010;-86
2022/10/06 09:04:33;;;;;;;1.05;0.75;;;20.10;51.40;;;19.26;54.08;102279.09;12264918;19;20360;-86
2022/10/06 09:08:50;;;;;;;0.65;0.63;;;20.40;51.60;;;19.29;54.01;102286.81;12263939;19;20053;-88
2022/10/06 09:13:01;;;;;;;2.72;0.73;;;20.20;51.10;;;19.18;53.74;102269.84;12263477;19;20017;-88
2022/10/06 09:17:10;;;;;;;2.10;0.80;;;20.30;51.10;;;19.33;53.78;102293.59;12263715;19;20026;-86
2022/10/06 09:21:17;;;;;;;1.88;0.70;;;20.30;51.00;;;19.37;53.79;102303.91;12260201;19;20013;-86
2022/10/06 09:25:27;;;;;;;2.72;0.70;;;20.30;50.70;;;19.42;53.82;102317.69;12259369;19;20010;-86
2022/10/06 09:29:30;;;;;;;2.33;0.70;;;20.30;50.90;;;19.24;53.50;102274.72;12256518;19;20010;-89
2022/10/06 09:33:38;;;;;;;1.38;0.50;;;20.40;51.00;;;19.46;53.41;102300.59;12261664;19;20032;-87
2022/10/06 09:38:10;;;;;;;3.25;1.05;;;20.60;50.50;;;19.55;53.35;102322.13;12260475;19;20022;-85
2022/10/06 09:42:29;;;;;;;1.08;0.60;;;20.60;50.10;;;19.57;53.31;102322.88;12255790;19;20022;-85
2022/10/06 09:46:40;;;;;;;2.47;0.57;;;20.50;49.80;;;19.65;52.97;102344.41;12256628;19;20354;-85
2022/10/06 09:50:42;;;;;;;2.08;0.65;;;20.70;49.40;;;19.65;52.73;102353.22;12254973;19;20022;-85
2022/10/06 09:54:44;;;;;;;1.85;0.77;;;20.60;49.80;;;19.56;52.77;102334.47;12256736;19;20360;-86
2022/10/06 09:58:58;;;;;;;1.13;0.50;;;20.60;49.50;;;19.62;52.59;102360.53;12255118;19;20074;-85
2022/10/06 10:03:05;;;;;;;1.35;0.70;;;20.60;49.60;;;19.51;52.67;102350.66;12245408;19;20014;-84
2022/10/06 10:07:23;;;;;;;2.60;0.98;;;20.60;49.40;;;19.60;52.36;102368.56;12252102;19;20014;-84
2022/10/06 10:16:01;;;;;;;1.33;0.60;;;20.50;49.70;;;19.50;52.66;102361.38;12255999;19;20017;-84
2022/10/06 10:20:21;;;;;;;3.17;0.70;;;20.50;49.70;;;19.50;52.63;102367.53;12247624;19;20481;-86
2022/10/06 10:24:50;;;;;;;2.63;0.55;;;20.50;49.70;;;19.55;52.29;102383.97;12252964;19;20492;-85
2022/10/06 10:29:42;;;;;;;1.70;0.65;;;20.40;49.60;;;19.49;52.31;102381.69;12252338;19;20039;-84
2022/10/06 10:33:54;;;;;;;2.35;0.70;;;20.40;49.90;;;19.55;52.30;102385.75;12244431;19;20102;-84
2022/10/06 10:38:08;;;;;;;2.50;0.93;;;20.40;49.60;;;19.59;52.16;102381.94;12248075;19;20014;-87
2022/10/06 10:43:11;;;;;;;4.32;1.02;;;20.40;49.10;;;19.59;52.01;102387.25;12253209;19;20389;-86
2022/10/06 10:47:24;;;;;;;3.10;0.63;;;20.40;49.70;;;19.56;51.96;102363.59;12251398;19;20006;-85
2022/10/06 10:51:40;;;;;;;2.65;0.80;;;20.50;49.40;;;19.49;51.95;102333.16;12246761;19;20021;-86
2022/10/06 10:55:47;;;;;;;1.15;0.68;;;20.60;49.20;;;19.62;51.88;102345.47;12251089;19;20018;-85
2022/10/06 11:00:02;;;;;;;2.30;0.98;;;20.60;49.20;;;19.89;51.62;102377.25;12250512;19;20010;-86
2022/10/06 11:04:10;;;;;;;1.33;0.60;;;20.80;48.90;;;20.05;51.72;102381.50;12255511;19;20011;-85
2022/10/06 11:08:23;;;;;;;0.93;0.52;;;20.90;48.60;;;20.12;51.41;102380.13;12255472;19;20018;-86
2022/10/06 11:12:56;;;;;;;1.27;0.60;;;21.00;48.60;;;20.20;51.34;102395.50;12255936;19;20007;-87
2022/10/06 11:17:20;;;;;;;0.93;0.55;;;21.10;48.80;;;20.21;51.03;102399.88;12252326;19;20014;-86
2022/10/06 11:21:35;;;;;;;0.63;0.52;;;21.10;47.10;;;20.10;50.94;102379.38;12247612;19;20011;-85
2022/10/06 11:26:11;;;;;;;4.57;0.90;;;21.30;47.80;;;20.30;50.78;102401.88;12252540;19;20035;-87
2022/10/06 11:30:18;;;;;;;2.45;0.90;;;21.40;48.30;;;20.31;51.25;102392.97;12250169;19;20496;-85
2022/10/06 11:34:20;;;;;;;3.28;0.65;;;21.20;47.70;;;20.48;50.87;102397.94;12252015;19;20025;-85
2022/10/06 11:38:41;;;;;;;1.23;0.80;;;21.40;47.80;;;20.32;50.79;102360.16;12249705;19;20015;-86
2022/10/06 11:43:00;;;;;;;2.47;0.65;;;21.50;47.70;;;20.63;50.29;102414.63;12250797;19;20014;-84
2022/10/06 11:47:08;;;;;;;0.73;0.57;;;21.50;47.50;;;20.67;50.63;102408.13;12251788;19;20010;-85
2022/10/06 11:51:29;;;;;;;1.77;0.60;;;21.80;47.20;;;20.66;50.13;102418.88;12253589;19;20007;-84
2022/10/06 11:55:31;;;;;;;0.90;0.50;;;21.80;47.60;;;20.73;50.32;102412.16;12249726;19;20017;-85
2022/10/06 11:59:33;;;;;;;1.15;0.73;;;21.90;47.40;;;20.57;49.87;102380.53;12246546;19;20098;-84
2022/10/06 12:03:45;;;;;;;2.65;0.70;;;21.70;47.30;;;20.75;49.80;102411.06;12241595;19;20485;-85
2022/10/06 12:07:56;;;;;;;2.28;0.63;;;21.70;46.50;;;20.80;50.01;102418.72;12248431;19;20019;-85
2022/10/06 12:12:16;;;;;;;3.88;0.60;;;21.70;46.70;;;20.82;49.53;102426.56;12248545;19;20015;-85
2022/10/06 12:16:31;;;;;;;1.95;0.82;;;21.70;46.50;;;20.70;49.42;102407.91;12246972;19;20026;-86
2022/10/06 12:21:05;;;;;;;2.33;0.77;;;21.70;46.40;;;20.80;49.36;102418.72;12244999;19;20035;-85
2022/10/06 12:25:35;;;;;;;1.38;0.70;;;21.80;46.30;;;20.90;49.63;102424.22;12247911;19;20009;-84
2022/10/06 12:29:54;;;;;;;0.82;0.50;;;21.80;46.30;;;20.90;49.45;102416.25;12253669;19;20014;-84
2022/10/06 12:33:56;;;;;;;1.27;0.57;;;21.80;46.30;;;20.87;49.58;102411.16;12262115;19;20115;-84
2022/10/06 12:38:04;;;;;;;4.28;0.70;;;21.80;46.00;;;20.86;49.09;102415.63;12261235;19;20022;-84
2022/10/06 12:42:19;;;;;;;3.55;1.10;;;21.80;45.80;;;20.72;48.93;102395.38;12261074;19;20015;-84
2022/10/06 12:46:33;;;;;;;2.90;0.70;;;21.80;45.70;;;20.85;49.06;102418.41;12260098;19;20014;-84
2022/10/06 12:50:36;;;;;;;2.50;0.70;;;21.80;45.40;;;20.80;48.72;102428.50;12256624;19;20137;-86
2022/10/06 12:55:07;;;;;;;1.35;0.60;;;21.80;44.90;;;20.89;48.82;102449.91;12261792;19;20019;-86
2022/10/06 12:59:33;;;;;;;2.15;0.70;;;21.80;45.60;;;20.89;48.34;102439.31;12253380;19;19999;-85
2022/10/06 13:03:36;;;;;;;1.10;0.52;;;21.80;46.00;;;20.93;48.62;102426.66;12260225;19;20007;-85
2022/10/06 13:07:59;;;;;;;1.17;0.77;;;21.80;46.00;;;20.85;48.73;102413.09;12257886;19;20022;-85
2022/10/06 13:12:20;;;;;;;2.40;0.90;;;21.80;46.20;;;21.00;48.30;102426.09;12260530;19;20018;-85
2022/10/06 13:16:30;;;;;;;0.80;0.73;;;21.80;46.00;;;20.99;48.10;102431.53;12275283;19;20034;-84
2022/10/06 13:20:55;;;;;;;0.95;0.60;;;21.90;45.80;;;20.95;48.45;102427.38;12255434;19;20487;-86
2022/10/06 13:25:00;;;;;;;2.38;0.80;;;21.90;46.00;;;20.99;47.99;102444.81;12264119;19;20022;-85
2022/10/06 13:29:02;;;;;;;2.03;0.60;;;21.90;45.10;;;20.99;48.24;102432.38;12258564;19;20007;-85
2022/10/06 13:33:06;;;;;;;0.60;0.50;;;22.00;45.20;;;20.78;47.90;102412.66;12260888;19;20014;-84
2022/10/06 13:37:13;;;;;;;1.45;0.60;;;21.90;45.10;;;20.97;47.97;102436.09;12259671;19;20014;-86
2022/10/06 13:41:36;;;;;;;2.63;0.65;;;21.80;45.10;;;20.92;47.47;102439.06;12251659;19;20090;-85
2022/10/06 13:45:43;;;;;;;1.42;0.60;;;21.80;44.90;;;20.94;47.63;102437.16;12251425;19;20074;-84
2022/10/06 13:50:12;;;;;;;1.30;0.60;;;21.80;44.90;;;20.84;47.65;102437.94;12256322;19;20034;-85
2022/10/06 13:54:47;;;;;;;1.67;0.63;;;21.80;45.30;;;20.88;47.50;102447.41;12258232;19;20014;-85
2022/10/06 13:58:49;;;;;;;1.48;0.68;;;21.80;44.40;;;20.96;47.53;102448.53;12253440;19;20026;-86
2022/10/06 14:03:07;;;;;;;1.17;0.77;;;22.00;44.70;;;20.85;47.63;102447.63;12257171;19;20007;-84
2022/10/06 14:07:12;;;;;;;1.27;0.55;;;21.80;44.90;;;20.87;47.51;102454.47;12256292;19;20011;-84
2022/10/06 14:11:28;;;;;;;1.77;0.80;;;21.80;44.80;;;20.88;47.23;102453.53;12244778;19;20067;-84
2022/10/06 14:15:45;;;;;;;2.55;0.70;;;21.90;44.70;;;20.70;47.17;102442.41;12250146;19;20376;-87
2022/10/06 14:19:47;;;;;;;1.63;0.88;;;21.90;44.40;;;20.89;46.95;102472.97;12250084;19;20022;-85
2022/10/06 14:23:52;;;;;;;2.92;0.65;;;21.70;44.10;;;20.62;46.77;102433.31;12247994;19;20485;-84
2022/10/06 14:27:54;;;;;;;1.65;0.63;;;21.60;44.30;;;20.78;46.68;102466.63;12252697;19;20030;-87
2022/10/06 14:32:12;;;;;;;3.25;0.80;;;21.70;44.30;;;20.74;47.03;102481.09;12250765;19;20069;-85
2022/10/06 14:36:27;;;;;;;2.25;0.60;;;21.60;44.20;;;20.68;46.86;102472.69;12252926;19;20018;-88
2022/10/06 14:40:29;;;;;;;0.55;0.55;;;21.50;44.40;;;20.64;47.05;102469.41;12251923;19;20010;-88
2022/10/06 14:44:30;;;;;;;1.98;0.70;;;21.60;44.70;;;20.67;46.74;102481.63;12253675;19;20014;-85
2022/10/06 14:48:32;;;;;;;0.63;0.57;;;21.60;44.30;;;20.71;46.56;102483.09;12253071;19;20367;-88
2022/10/06 14:52:33;;;;;;;0.98;0.57;;;21.60;44.10;;;20.45;46.57;102439.78;12252530;19;20081;-86
2022/10/06 14:56:37;;;;;;;2.58;0.60;;;21.50;44.20;;;20.59;46.66;102466.22;12257482;19;20072;-87
2022/10/06 15:00:41;;;;;;;2.15;1.35;;;21.50;44.30;;;20.69;46.29;102485.03;12250549;19;20022;-85
2022/10/06 15:04:42;;;;;;;0.73;0.50;;;21.60;44.20;;;20.47;46.19;102467.06;12252755;19;20108;-88
2022/10/06 15:08:49;;;;;;;1.98;0.80;;;21.50;44.30;;;20.60;46.20;102483.00;12255471;19;20024;-88
2022/10/06 15:12:51;;;;;;;2.03;0.70;;;21.40;44.30;;;20.57;46.20;102489.38;12254804;19;20014;-88
2022/10/06 15:16:53;;;;;;;1.77;0.70;;;21.40;44.30;;;20.38;46.04;102459.72;12252590;19;20019;-87
2022/10/06 15:21:02;;;;;;;2.42;0.60;;;21.50;44.20;;;20.29;45.83;102448.78;12251269;19;20468;-86
2022/10/06 15:25:04;;;;;;;2.75;0.55;;;21.50;44.00;;;20.60;46.14;102505.06;12261320;19;20010;-85
2022/10/06 15:29:06;;;;;;;4.07;0.57;;;21.40;44.20;;;20.51;46.00;102490.59;12255165;19;20007;-87
2022/10/06 15:33:07;;;;;;;1.70;0.68;;;21.50;44.30;;;20.34;45.88;102456.44;12254795;19;20029;-87
2022/10/06 15:37:12;;;;;;;1.47;1.23;;;21.50;44.20;;;20.55;45.87;102505.41;12247668;19;20018;-86
2022/10/06 15:41:14;;;;;;;1.20;0.57;;;21.30;44.40;;;20.41;45.83;102483.38;12248678;19;20017;-87
2022/10/06 15:45:16;;;;;;;0.80;0.45;;;21.30;44.40;;;20.47;45.67;102493.59;12255148;19;20496;-86
2022/10/06 15:49:27;;;;;;;1.30;0.88;;;21.30;44.50;;;20.41;45.92;102486.03;12249841;19;20026;-87
2022/10/06 15:53:29;;;;;;;1.90;0.80;;;21.40;44.50;;;20.35;45.85;102487.31;12252605;19;20043;-86
2022/10/06 15:57:30;;;;;;;2.03;0.98;;;21.20;44.30;;;20.20;45.70;102461.81;12248997;19;20014;-87
2022/10/06 16:01:41;;;;;;;1.80;0.77;;;21.20;44.40;;;20.09;45.62;102465.19;12250488;19;20469;-87
2022/10/06 16:05:50;;;;;;;0.60;0.60;;;21.10;44.40;;;20.35;45.92;102511.19;12247271;19;20019;-87
2022/10/06 16:09:52;;;;;;;1.75;0.88;;;21.00;44.40;;;20.25;45.62;102503.03;12248082;19;20030;-87
2022/10/06 16:13:53;;;;;;;2.60;0.88;;;21.00;44.50;;;20.01;45.90;102472.81;12248162;19;20007;-86
2022/10/06 16:17:55;;;;;;;1.33;0.73;;;21.00;44.50;;;20.16;45.91;102503.63;12248007;19;20018;-87
2022/10/06 16:21:58;;;;;;;2.00;1.15;;;21.00;44.80;;;20.06;45.64;102498.13;12244887;19;20022;-83
2022/10/06 16:26:03;;;;;;;1.60;1.00;;;20.90;44.90;;;20.11;45.66;102525.16;12247047;19;20026;-86
2022/10/06 16:30:06;;;;;;;6.50;4.20;;;20.80;45.10;;;20.05;45.97;102527.38;12244461;19;20107;-86
2022/10/06 16:34:07;;;;;;;5.30;3.53;;;20.80;45.40;;;20.03;46.06;102532.78;12244958;19;20271;-86
2022/10/06 16:38:11;;;;;;;3.97;2.22;;;20.70;45.50;;;19.95;45.83;102537.72;12246937;19;20086;-86
2022/10/06 16:42:12;;;;;;;2.03;1.58;;;20.70;45.70;;;19.31;45.78;102447.38;12250407;19;20067;-86
2022/10/06 16:46:24;;;;;;;3.45;1.38;;;20.70;45.40;;;19.59;45.80;102530.38;12249850;19;20086;-86
2022/10/06 16:50:25;;;;;;;4.05;1.73;;;20.50;45.50;;;19.23;45.70;102486.75;12246268;19;20006;-86
2022/10/06 16:54:26;;;;;;;1.13;0.88;;;20.30;45.60;;;19.36;45.88;102542.41;12249728;19;20023;-87
2022/10/06 16:58:43;;;;;;;1.55;0.85;;;20.40;45.90;;;19.29;45.87;102549.91;12250338;19;20022;-87
2022/10/06 17:02:44;;;;;;;2.35;1.30;;;20.00;46.00;;;18.91;45.94;102502.84;12250698;19;20014;-87
2022/10/06 17:06:54;;;;;;;1.75;1.45;;;19.80;46.00;;;18.84;45.82;102511.25;12252081;19;20018;-88
2022/10/06 17:11:13;;;;;;;3.53;1.58;;;19.80;46.30;;;18.97;45.87;102557.22;12247222;19;20029;-86
2022/10/06 17:15:14;;;;;;;5.65;1.77;;;19.60;46.40;;;18.93;46.28;102559.22;12256374;19;20139;-86